Time;durP1;ratioP1;P1;durP2;ratioP2;P2;SDS_P1;SDS_P2;PMS_P1;PMS_P2;Temp;Humidity;BMP_temperature;BMP_pressure;BME280_temperature;BME280_humidity;BME280_pressure;Samples;Min_cycle;Max_cycle;Signal;HPM_P1;HPM_P2
2022/04/18 00:05:49;;;;;;;1999.90;999.90;;;;;;;7.46;60.23;101925.94;15491072;28;20121;-62
2022/04/18 00:13:23;;;;;;;1999.90;999.90;;;;;;;7.33;60.04;101909.91;15479295;28;20034;-62
2022/04/18 00:20:55;;;;;;;1999.90;999.90;;;;;;;7.18;60.81;101903.25;15497727;28;20050;-61
2022/04/18 00:28:29;;;;;;;1999.90;999.90;;;;;;;6.93;62.04;101906.09;15530200;28;20407;-61
2022/04/18 00:36:01;;;;;;;;;;;;;;;6.88;62.13;101898.63;15505726;28;20077;-61
2022/04/18 00:43:44;;;;;;;1999.90;999.90;;;;;;;6.76;62.54;101875.84;15492049;28;19932;-61
2022/04/18 00:51:21;;;;;;;1999.90;999.90;;;;;;;6.50;62.50;101882.53;15450580;28;20415;-61
2022/04/18 00:58:56;;;;;;;1999.90;999.90;;;;;;;6.50;62.60;101871.44;15478699;28;20047;-60
2022/04/18 01:06:28;;;;;;;1999.90;999.90;;;;;;;6.40;61.76;101863.13;15492338;28;20488;-60
2022/04/18 01:14:02;;;;;;;1999.90;999.90;;;;;;;6.20;63.69;101856.47;15460509;28;20050;-60
2022/04/18 01:21:51;;;;;;;1999.90;999.90;;;;;;;5.92;63.41;101843.97;15477463;28;20492;-61
2022/04/18 01:29:43;;;;;;;1999.90;999.90;;;;;;;5.87;63.36;101834.78;15501834;28;20040;-60
2022/04/18 01:37:17;;;;;;;1999.90;999.90;;;;;;;5.77;63.43;101832.81;15479992;28;20051;-62
2022/04/18 01:44:51;;;;;;;1999.90;999.90;;;;;;;5.63;64.16;101827.00;15457848;28;20579;-60
2022/04/18 01:52:25;;;;;;;1999.90;999.90;;;;;;;5.48;64.58;101829.69;15494871;28;20046;-61
2022/04/18 01:59:58;;;;;;;1999.90;999.90;;;;;;;5.52;63.79;101805.88;15445845;28;20046;-61
2022/04/18 02:07:38;;;;;;;1999.90;999.90;;;;;;;5.39;64.80;101810.00;15484988;28;20070;-59
2022/04/18 02:15:11;;;;;;;1999.90;999.90;;;;;;;5.17;65.53;101795.53;15499898;28;20415;-61
2022/04/18 02:22:58;;;;;;;1999.90;999.90;;;;;;;5.20;65.54;101795.81;15470831;28;20078;-62
2022/04/18 02:30:31;;;;;;;1999.90;999.90;;;;;;;4.98;66.18;101797.94;15482707;28;20038;-61
2022/04/18 02:38:07;;;;;;;1999.90;999.90;;;;;;;5.02;65.40;101792.72;15482026;28;20137;-62
2022/04/18 02:45:49;;;;;;;1999.90;999.90;;;;;;;4.92;65.30;101785.22;15482124;28;20041;-62
2022/04/18 02:53:45;;;;;;;1999.90;999.90;;;;;;;4.86;66.18;101775.22;15482078;28;20069;-60
2022/04/18 03:01:18;;;;;;;1999.90;999.90;;;;;;;4.58;66.41;101771.72;15481110;28;20109;-61
2022/04/18 03:08:53;;;;;;;1999.90;999.90;;;;;;;4.69;66.06;101767.13;15497190;28;20456;-62
2022/04/18 03:16:25;;;;;;;;;;;;;;;4.79;66.78;101756.09;15474815;28;20559;-61
2022/04/18 03:23:59;;;;;;;1999.90;999.90;;;;;;;4.79;67.97;101755.25;15480903;28;19972;-61
2022/04/18 03:31:43;;;;;;;1999.90;999.90;;;;;;;4.91;69.42;101748.41;15496371;28;20049;-60
2022/04/18 03:47:13;;;;;;;1999.90;999.90;;;;;;;4.84;67.20;101741.47;15483083;28;20034;-60
2022/04/18 03:54:47;;;;;;;1999.90;999.90;;;;;;;4.64;67.19;101736.66;15495712;28;20046;-58
2022/04/18 04:02:24;;;;;;;1999.90;999.90;;;;;;;4.61;67.95;101740.81;15476496;28;20046;-60
2022/04/18 04:10:01;;;;;;;1999.90;999.90;;;;;;;4.73;68.86;101740.59;15455738;28;20046;-62
2022/04/18 04:17:33;;;;;;;;;;;;;;;4.87;69.09;101751.97;15441144;28;20445;-60
2022/04/18 04:25:07;;;;;;;1999.90;999.90;;;;;;;4.77;67.65;101744.47;15484937;28;19930;-59
2022/04/18 04:32:39;;;;;;;1999.90;999.90;;;;;;;4.72;67.21;101743.63;15483418;28;20039;-61
2022/04/18 04:40:13;;;;;;;1999.90;999.90;;;;;;;4.80;66.67;101743.94;15492271;28;20057;-61
2022/04/18 04:47:46;;;;;;;1999.90;999.90;;;;;;;4.90;66.53;101724.63;15475931;28;20052;-60
2022/04/18 04:55:21;;;;;;;1999.90;999.90;;;;;;;5.25;66.86;101719.47;15479156;28;20046;-60
2022/04/18 05:02:56;;;;;;;1999.90;999.90;;;;;;;5.65;65.51;101719.53;15501948;28;20030;-59
2022/04/18 05:10:48;;;;;;;1999.90;999.90;;;;;;;6.03;65.32;101720.94;15502645;28;20526;-59
2022/04/18 05:18:28;;;;;;;1999.90;999.90;;;;;;;6.70;65.49;101718.03;15467947;28;20038;-61
2022/04/18 05:26:04;;;;;;;1999.90;999.90;;;;;;;7.28;64.97;101713.59;15484326;28;20042;-62
2022/04/18 05:33:37;;;;;;;1999.90;999.90;;;;;;;8.07;63.13;101726.34;15483624;28;20034;-58
2022/04/18 05:41:38;;;;;;;1999.90;999.90;;;;;;;8.81;61.19;101729.78;15486066;28;20042;-62
2022/04/18 05:49:13;;;;;;;1999.90;999.90;;;;;;;9.31;59.10;101730.25;15498903;28;20038;-59
2022/04/18 05:56:49;;;;;;;1999.90;999.90;;;;;;;10.33;57.33;101734.22;15466225;28;20050;-62
2022/04/18 06:04:41;;;;;;;1999.90;999.90;;;;;;;11.09;54.69;101723.50;15481430;28;20038;-62
2022/04/18 06:12:29;;;;;;;1999.90;999.90;;;;;;;11.92;52.46;101732.50;15500041;28;20050;-61
2022/04/18 06:20:08;;;;;;;1999.90;999.90;;;;;;;12.49;50.85;101722.31;15497988;28;20120;-60
2022/04/18 06:27:42;;;;;;;1999.90;999.90;;;;;;;13.49;48.84;101732.88;15496999;28;20399;-61
2022/04/18 06:35:15;;;;;;;1999.90;999.90;;;;;;;12.71;48.51;101744.69;15498165;28;20100;-62
2022/04/18 06:42:50;;;;;;;1999.90;999.90;;;;;;;13.00;48.56;101730.09;15497261;28;20440;-61
2022/04/18 06:50:29;;;;;;;1999.90;999.90;;;;;;;15.02;46.22;101728.47;15497060;28;20069;-60
2022/04/18 06:58:02;;;;;;;1999.90;999.90;;;;;;;13.84;48.70;101739.31;15478824;28;20188;-62
2022/04/18 07:05:35;;;;;;;;;;;;;;;15.75;44.22;101728.19;15490268;28;20117;-57
2022/04/18 07:13:08;;;;;;;1999.90;999.90;;;;;;;16.80;41.98;101731.59;15515479;28;19922;-58
2022/04/18 07:20:43;;;;;;;1999.90;999.90;;;;;;;16.16;41.56;101730.13;15479397;28;20042;-60
2022/04/18 07:28:17;;;;;;;1999.90;999.90;;;;;;;17.30;39.26;101737.69;15494984;28;20454;-60
2022/04/18 07:35:49;;;;;;;1999.90;999.90;;;;;;;15.95;40.86;101726.53;15430096;28;20041;-64
2022/04/18 07:43:27;;;;;;;1999.90;999.90;;;;;;;18.21;38.25;101728.72;15432594;28;20043;-67
2022/04/18 07:58:52;;;;;;;1999.90;999.90;;;;;;;18.84;38.50;101733.66;15476299;28;20373;-61
2022/04/18 08:06:34;;;;;;;1999.90;999.90;;;;;;;19.96;34.34;101728.22;15477218;28;20034;-63
2022/04/18 08:14:26;;;;;;;1999.90;999.90;;;;;;;18.78;36.42;101723.81;15494309;28;20495;-62
2022/04/18 08:22:10;;;;;;;1999.90;999.90;;;;;;;19.72;35.44;101714.34;15499667;28;20029;-62
2022/04/18 08:30:08;;;;;;;1999.90;999.90;;;;;;;20.13;34.90;101719.28;15547971;28;20042;-61
2022/04/18 08:37:56;;;;;;;1999.90;999.90;;;;;;;19.78;32.83;101705.16;15549074;28;20042;-60
2022/04/18 08:45:39;;;;;;;1999.90;999.90;;;;;;;20.50;32.63;101707.44;15565428;28;20042;-64
2022/04/18 08:53:16;;;;;;;1999.90;999.90;;;;;;;19.75;34.92;101696.63;15538840;28;20133;-64
2022/04/18 09:01:01;;;;;;;1999.90;999.90;;;;;;;22.36;29.31;101691.91;15504140;28;20512;-64
2022/04/18 09:09:10;;;;;;;1999.90;999.90;;;;;;;20.18;29.74;101681.28;15504875;28;20034;-60
2022/04/18 09:16:52;;;;;;;1999.90;999.90;;;;;;;21.45;27.81;101673.31;15528844;28;20074;-62
2022/04/18 09:24:48;;;;;;;1999.90;999.90;;;;;;;21.78;28.62;101660.34;15491010;28;20046;-61
2022/04/18 09:32:40;;;;;;;1999.90;999.90;;;;;;;21.87;29.89;101660.88;15466132;28;20408;-63
2022/04/18 09:40:51;;;;;;;1999.90;999.90;;;;;;;23.30;25.33;101641.06;15517597;28;20416;-64
2022/04/18 09:48:33;;;;;;;1999.90;999.90;;;;;;;21.86;26.81;101630.81;15506301;28;20145;-61
2022/04/18 09:56:07;;;;;;;1999.90;999.90;;;;;;;23.09;26.06;101640.13;15482365;28;20051;-61
2022/04/18 10:03:44;;;;;;;1999.90;999.90;;;;;;;22.56;27.12;101626.28;15499670;28;20039;-61
2022/04/18 10:11:19;;;;;;;1999.90;999.90;;;;;;;23.08;25.05;101616.53;15482377;28;20046;-62
2022/04/18 10:18:57;;;;;;;1999.90;999.90;;;;;;;22.75;24.28;101608.97;15499584;28;20475;-63
2022/04/18 10:27:00;;;;;;;1999.90;999.90;;;;;;;21.74;26.73;101603.50;15503790;28;20126;-62
2022/04/18 10:34:42;;;;;;;1999.90;999.90;;;;;;;23.45;24.31;101595.56;15512072;28;20047;-62
2022/04/18 10:42:20;;;;;;;1999.90;999.90;;;;;;;24.04;25.59;101581.91;15479644;28;20050;-63
2022/04/18 10:50:18;;;;;;;1999.90;999.90;;;;;;;24.77;26.82;101585.22;15480099;28;20054;-63
2022/04/18 10:58:09;;;;;;;1999.90;999.90;;;;;;;23.79;25.70;101579.84;15478557;28;20038;-63
2022/04/18 11:05:45;;;;;;;1999.90;999.90;;;;;;;23.85;26.29;101578.22;15519423;28;20042;-60
2022/04/18 11:13:26;;;;;;;1999.90;999.90;;;;;;;25.02;22.40;101560.31;15494987;28;20059;-63
2022/04/18 11:21:03;;;;;;;1999.90;999.90;;;;;;;25.97;25.25;101553.78;15462077;28;20042;-63
2022/04/18 11:28:39;;;;;;;1999.90;999.90;;;;;;;26.53;23.75;101545.97;15484540;28;20077;-63
2022/04/18 11:36:13;;;;;;;1999.90;999.90;;;;;;;23.50;25.42;101547.56;15498546;28;20054;-63
2022/04/18 11:43:46;;;;;;;1999.90;999.90;;;;;;;25.76;24.99;101546.97;15494122;28;20158;-62
2022/04/18 11:51:40;;;;;;;1999.90;999.90;;;;;;;24.94;24.15;101535.03;15487413;28;20058;-62
2022/04/18 11:59:13;;;;;;;1999.90;999.90;;;;;;;25.25;21.86;101511.28;15493974;28;20408;-62
2022/04/18 12:06:46;;;;;;;1999.90;999.90;;;;;;;24.92;23.31;101509.75;15472211;28;20050;-64
2022/04/18 12:14:20;;;;;;;1999.90;999.90;;;;;;;23.48;23.52;101495.88;15537190;28;20560;-62
2022/04/18 12:21:55;;;;;;;1999.90;999.90;;;;;;;23.18;23.92;101481.16;15520724;28;20046;-67
2022/04/18 12:29:27;;;;;;;1999.90;999.90;;;;;;;25.69;22.50;101471.84;15573527;28;20072;-64
2022/04/18 12:37:03;;;;;;;1999.90;999.90;;;;;;;27.28;19.88;101452.25;15542474;28;20130;-63
2022/04/18 12:44:36;;;;;;;1999.90;999.90;;;;;;;28.53;19.72;101444.47;15529985;28;20499;-66
2022/04/18 12:52:09;;;;;;;1999.90;999.90;;;;;;;27.11;20.48;101438.19;15500720;28;20443;-63
2022/04/18 12:59:42;;;;;;;1999.90;999.90;;;;;;;28.06;20.39;101437.94;15519465;28;20046;-65
2022/04/18 13:07:16;;;;;;;1999.90;999.90;;;;;;;30.82;18.00;101426.22;15480943;28;20438;-61
2022/04/18 13:15:02;;;;;;;1999.90;999.90;;;;;;;33.24;17.05;101414.22;15476752;28;20051;-62
2022/04/18 13:22:38;;;;;;;1999.90;999.90;;;;;;;32.93;16.55;101408.44;15490679;28;20050;-60
2022/04/18 13:30:11;;;;;;;1999.90;999.90;;;;;;;30.58;17.43;101391.13;15502284;28;20046;-64
2022/04/18 13:37:45;;;;;;;1999.90;999.90;;;;;;;30.41;16.91;101390.34;15486598;28;20113;-64
2022/04/18 13:45:20;;;;;;;1999.90;999.90;;;;;;;30.61;17.57;101381.56;15500574;28;20049;-62
2022/04/18 13:52:54;;;;;;;1999.90;999.90;;;;;;;25.81;20.90;101369.28;15481268;28;20039;-63
2022/04/18 14:00:33;;;;;;;1999.90;999.90;;;;;;;21.85;26.33;101348.75;15505099;28;20136;-63
2022/04/18 14:08:18;;;;;;;1999.90;999.90;;;;;;;20.24;27.64;101350.28;15498653;28;20038;-62
2022/04/18 14:23:42;;;;;;;1999.90;999.90;;;;;;;20.16;28.99;101318.19;15503781;28;20074;-63
2022/04/18 14:31:20;;;;;;;1999.90;999.90;;;;;;;20.03;27.10;101300.59;15490884;28;20043;-61
2022/04/18 14:38:54;;;;;;;1999.90;999.90;;;;;;;20.66;29.68;101301.81;15489872;28;20443;-61
2022/04/18 14:46:26;;;;;;;1999.90;999.90;;;;;;;19.43;27.37;101289.16;15496424;28;20512;-61
2022/04/18 14:54:00;;;;;;;1999.90;999.90;;;;;;;19.39;28.20;101279.00;15495920;28;20049;-61
2022/04/18 15:01:35;;;;;;;1999.90;999.90;;;;;;;19.08;29.51;101274.44;15477678;28;20042;-64
2022/04/18 15:09:09;;;;;;;1999.90;999.90;;;;;;;18.98;28.56;101273.84;15498157;28;20054;-61
2022/04/18 15:16:45;;;;;;;1999.90;999.90;;;;;;;19.47;30.29;101255.25;15479791;28;20042;-60
2022/04/18 15:24:19;;;;;;;1999.90;999.90;;;;;;;19.23;28.40;101257.31;15497257;28;20093;-62
2022/04/18 15:32:10;;;;;;;1999.90;999.90;;;;;;;18.79;28.65;101251.28;15496532;28;20113;-64
2022/04/18 15:39:43;;;;;;;1999.90;999.90;;;;;;;18.65;29.03;101239.69;15466055;28;20062;-65
2022/04/18 15:47:16;;;;;;;1999.90;999.90;;;;;;;19.22;29.71;101240.72;15432992;28;20047;-65
2022/04/18 15:54:49;;;;;;;1999.90;999.90;;;;;;;18.26;29.33;101231.28;15435391;28;20064;-62
2022/04/18 16:02:21;;;;;;;1999.90;999.90;;;;;;;18.31;29.22;101232.97;15439863;28;20042;-62
2022/04/18 16:09:55;;;;;;;1999.90;999.90;;;;;;;18.45;30.38;101233.28;15527092;28;20053;-63
2022/04/18 16:17:27;;;;;;;1999.90;999.90;;;;;;;18.69;31.79;101232.94;15504880;28;20048;-61
2022/04/18 16:25:01;;;;;;;1999.90;999.90;;;;;;;18.82;31.35;101225.09;15476189;28;20066;-60
2022/04/18 16:32:33;;;;;;;1999.90;999.90;;;;;;;18.04;32.34;101223.56;15492541;28;20050;-61
2022/04/18 16:40:08;;;;;;;1999.90;999.90;;;;;;;18.22;31.79;101219.06;15491575;28;20038;-62
2022/04/18 16:47:40;;;;;;;1999.90;999.90;;;;;;;17.70;31.66;101223.22;15491368;28;20092;-59
2022/04/18 16:55:14;;;;;;;1999.90;999.90;;;;;;;17.55;32.27;101201.50;15495646;28;20058;-60
2022/04/18 17:02:46;;;;;;;;;;;;;;;17.72;33.01;101215.22;15503812;28;20105;-61
2022/04/18 17:10:19;;;;;;;1999.90;999.90;;;;;;;17.46;32.72;101207.34;15498968;28;19968;-61
2022/04/18 17:17:52;;;;;;;1999.90;999.90;;;;;;;17.19;33.06;101203.47;15508271;28;20055;-61
2022/04/18 17:25:25;;;;;;;1999.90;999.90;;;;;;;17.37;33.62;101191.81;15490858;28;20158;-60
2022/04/18 17:32:57;;;;;;;;;;;;;;;17.16;33.40;101192.94;15493595;28;20093;-61
2022/04/18 17:40:32;;;;;;;1999.90;999.90;;;;;;;16.87;34.29;101194.22;15499231;28;19921;-63
2022/04/18 17:48:05;;;;;;;1999.90;999.90;;;;;;;16.60;34.01;101200.75;15489421;28;20081;-62
2022/04/18 17:55:58;;;;;;;1999.90;999.90;;;;;;;16.44;33.30;101195.09;15500243;28;20050;-64
2022/04/18 18:03:31;;;;;;;;;;;;;;;16.25;34.29;101201.41;15483110;28;20038;-59
2022/04/18 18:11:05;;;;;;;1999.90;999.90;;;;;;;15.91;35.59;101200.06;15481984;28;20426;-58
2022/04/18 18:18:38;;;;;;;1999.90;999.90;;;;;;;15.71;35.12;101201.06;15480074;28;20431;-63
2022/04/18 18:26:11;;;;;;;1999.90;999.90;;;;;;;15.75;36.09;101197.19;15502509;28;20057;-61
2022/04/18 18:33:44;;;;;;;;;;;;;;;15.79;37.35;101200.09;15499580;28;20125;-60
2022/04/18 18:41:17;;;;;;;1999.90;999.90;;;;;;;15.44;38.36;101199.81;15499848;28;19957;-62
2022/04/18 18:48:50;;;;;;;1999.90;999.90;;;;;;;15.16;38.41;101203.34;15473166;28;20039;-64
2022/04/18 18:56:23;;;;;;;1999.90;999.90;;;;;;;14.89;38.21;101216.09;15479495;28;20030;-62
2022/04/18 19:03:56;;;;;;;1999.90;999.90;;;;;;;14.85;39.94;101215.19;15496100;28;20047;-62
2022/04/18 19:11:30;;;;;;;1999.90;999.90;;;;;;;14.61;40.50;101201.94;15486917;28;20053;-62
2022/04/18 19:26:55;;;;;;;1999.90;999.90;;;;;;;13.74;40.94;101207.56;15469864;28;20124;-62
2022/04/18 19:34:27;;;;;;;1999.90;999.90;;;;;;;13.67;40.23;101210.09;15475212;28;20077;-60
2022/04/18 19:42:01;;;;;;;1999.90;999.90;;;;;;;13.48;40.77;101207.78;15490845;28;20049;-60
2022/04/18 19:49:33;;;;;;;;;;;;;;;13.50;40.67;101207.41;15475902;28;20048;-64
2022/04/18 19:57:07;;;;;;;1999.90;999.90;;;;;;;13.23;41.76;101205.94;15474643;28;19976;-62
2022/04/18 20:04:41;;;;;;;1999.90;999.90;;;;;;;13.36;42.13;101202.09;15494218;28;20082;-62
2022/04/18 20:12:16;;;;;;;1999.90;999.90;;;;;;;13.02;42.59;101205.88;15497798;28;20113;-62
2022/04/18 20:19:49;;;;;;;1999.90;999.90;;;;;;;12.62;42.51;101197.03;15510588;28;20527;-62
2022/04/18 20:27:22;;;;;;;1999.90;999.90;;;;;;;12.96;42.78;101208.06;15507071;28;20050;-61
2022/04/18 20:34:54;;;;;;;1999.90;999.90;;;;;;;12.48;41.58;101197.22;15505633;28;20049;-61
2022/04/18 20:42:31;;;;;;;1999.90;999.90;;;;;;;12.60;39.59;101194.53;15483941;28;20046;-59
2022/04/18 20:50:04;;;;;;;1999.90;999.90;;;;;;;11.96;38.97;101202.91;15490492;28;20078;-62
2022/04/18 21:05:28;;;;;;;1999.90;999.90;;;;;;;11.64;38.98;101204.22;15500457;28;20012;-62
2022/04/18 21:13:03;;;;;;;1999.90;999.90;;;;;;;11.41;37.41;101197.13;15485408;28;20113;-62
2022/04/18 21:20:39;;;;;;;1999.90;999.90;;;;;;;11.18;37.73;101197.28;15482287;28;20043;-62
2022/04/18 21:28:13;;;;;;;1999.90;999.90;;;;;;;11.07;38.54;101189.53;15442803;28;20077;-62
2022/04/18 21:35:45;;;;;;;;;;;;;;;11.27;37.94;101192.53;15471582;28;20035;-61
2022/04/18 21:43:20;;;;;;;1999.90;999.90;;;;;;;11.01;37.93;101205.59;15482734;28;19929;-61
2022/04/18 21:50:52;;;;;;;1999.90;999.90;;;;;;;10.82;37.87;101210.63;15501082;28;20229;-61
2022/04/18 21:58:26;;;;;;;1999.90;999.90;;;;;;;10.72;37.03;101197.78;15500323;28;20041;-62
2022/04/18 22:05:59;;;;;;;1999.90;999.90;;;;;;;10.73;38.35;101190.22;15499372;28;20047;-62
2022/04/18 22:13:32;;;;;;;1999.90;999.90;;;;;;;10.65;38.63;101189.06;15486700;28;20132;-61
2022/04/18 22:28:56;;;;;;;1999.90;999.90;;;;;;;10.00;39.91;101164.53;15496342;28;20060;-60
2022/04/18 22:36:28;;;;;;;1999.90;999.90;;;;;;;9.82;40.46;101158.88;15483378;28;20047;-62
2022/04/18 22:44:02;;;;;;;1999.90;999.90;;;;;;;9.95;41.39;101159.13;15500396;28;20069;-60
2022/04/18 22:51:34;;;;;;;1999.90;999.90;;;;;;;9.65;41.81;101153.16;15498747;28;20050;-62
2022/04/18 22:59:09;;;;;;;1999.90;999.90;;;;;;;9.75;42.29;101147.34;15498223;28;20046;-59
2022/04/18 23:06:42;;;;;;;1999.90;999.90;;;;;;;9.19;43.87;101125.59;15497983;28;20129;-61
2022/04/18 23:14:15;;;;;;;1999.90;999.90;;;;;;;9.42;43.54;101121.69;15499733;28;20101;-61
2022/04/18 23:21:47;;;;;;;1999.90;999.90;;;;;;;9.47;44.16;101117.94;15480662;28;20042;-61
2022/04/18 23:29:22;;;;;;;1999.90;999.90;;;;;;;9.42;44.44;101099.41;15497722;28;20508;-57
2022/04/18 23:36:54;;;;;;;1999.90;999.90;;;;;;;9.29;43.96;101089.16;15497499;28;20426;-58
2022/04/18 23:44:27;;;;;;;1999.90;999.90;;;;;;;9.41;44.62;101091.38;15480809;28;20125;-59
2022/04/18 23:52:00;;;;;;;1999.90;999.90;;;;;;;9.18;44.81;101074.66;15496619;28;20050;-60
2022/04/18 23:59:34;;;;;;;1999.90;999.90;;;;;;;9.23;45.51;101074.50;15497466;28;20126;-60
